Weather reports worldwide

Advertisment
Berkhout, Netherlands (6249): temperature & dewpoint: 19.10.2020 03:00:00 - 25.10.2020 03:00:00 (CET)Berkhout, Netherlands (6249): temperature 5cm: 19.10.2020 03:00:00 - 25.10.2020 03:00:00 (CET)Berkhout, Netherlands (6249): wind speed & gusts: 19.10.2020 03:00:00 - 25.10.2020 03:00:00 (CET)Berkhout, Netherlands (6249): wind direction: 19.10.2020 03:00:00 - 25.10.2020 03:00:00 (CET)Berkhout, Netherlands (6249): visibility: 19.10.2020 03:00:00 - 25.10.2020 03:00:00 (CET)Berkhout, Netherlands (6249): precipitation: 19.10.2020 03:00:00 - 25.10.2020 03:00:00 (CET)
Date & Time tt [°C] td [°C] tt 5cm [°C] ff [km/h] ff [kn] fx [km/h] fx [kn] dd vv [km] rr [mm]
25.10.2020 03:00:00 15,4 11,8 14,5 36 19 58 31 S 49 0,0
25.10.2020 02:00:00 15,8 12,0 14,8 36 19 61 33 S 50 0,0
25.10.2020 01:00:00 - - - - - - - - - -
25.10.2020 00:00:00 15,8 12,4 14,8 36 19 58 31 S 50 0,0
24.10.2020 23:00:00 15,6 12,7 14,6 36 19 54 29 S 50 0,0
24.10.2020 22:00:00 15,2 12,8 14,1 36 19 50 27 S 50 0,0
24.10.2020 21:00:00 14,8 12,6 13,9 32 18 54 29 S 49 0,0
24.10.2020 20:00:00 14,2 12,6 13,2 29 16 47 25 S 47 0,0
24.10.2020 19:00:00 14,4 12,7 13,6 29 16 43 23 S 49 0,0
24.10.2020 18:00:00 14,1 12,4 13,2 25 14 43 23 S 50 0,0
24.10.2020 17:00:00 14,5 12,3 13,7 25 14 50 27 S 50 0,0
24.10.2020 16:00:00 14,8 11,8 14,1 25 14 40 21 S 46 0,0
24.10.2020 15:00:00 14,5 11,2 14,0 25 14 43 23 S 50 0,0
24.10.2020 14:00:00 14,5 10,7 14,2 29 16 50 27 SSW 47 0,0
24.10.2020 13:00:00 14,6 10,9 14,8 29 16 47 25 SSW 39 0,0
24.10.2020 12:00:00 14,2 11,1 14,2 29 16 43 23 SSW 42 0,0
24.10.2020 11:00:00 13,4 12,0 13,0 22 12 36 19 SSW 30 0,0
24.10.2020 10:00:00 12,3 11,8 12,0 22 12 32 18 S 15 0,1
24.10.2020 09:00:00 11,5 10,7 11,4 22 12 36 19 SSW 9 0,0
24.10.2020 08:00:00 11,6 10,7 10,9 14 8 25 14 SSW 16 0,0
24.10.2020 07:00:00 10,9 9,9 9,6 14 8 22 12 S 25 0,0
24.10.2020 06:00:00 10,5 7,4 8,9 14 8 25 14 SW 35 0,0
24.10.2020 05:00:00 10,8 7,8 9,3 14 8 25 14 SW 45 0,0
24.10.2020 04:00:00 12,0 11,2 10,9 14 8 29 16 SW 21 0,0
24.10.2020 03:00:00 12,4 11,8 11,9 18 10 32 18 SW 19 0,0
24.10.2020 02:00:00 12,9 11,7 12,2 14 8 29 16 SW 28 0,1
24.10.2020 01:00:00 13,4 11,3 12,5 18 10 32 18 WSW 32 0,0
24.10.2020 00:00:00 13,7 12,1 12,8 22 12 40 21 WSW 20 0,0
23.10.2020 23:00:00 13,9 12,2 13,0 22 12 40 21 SW 20 0,0
23.10.2020 22:00:00 13,8 12,2 13,0 25 14 40 21 WSW 20 0,0
23.10.2020 21:00:00 14,3 12,0 13,4 25 14 36 19 SW 39 0,0
23.10.2020 20:00:00 13,9 11,9 13,0 22 12 29 16 SW 11 0,0
23.10.2020 19:00:00 14,0 11,7 13,1 18 10 29 16 SW 38 0,0
23.10.2020 18:00:00 13,9 12,0 12,6 18 10 29 16 SW 23 0,0
23.10.2020 17:00:00 14,2 11,8 13,4 22 12 32 18 SW 29 0,0
23.10.2020 16:00:00 14,8 12,4 14,7 25 14 36 19 WSW 17 0,0
23.10.2020 15:00:00 15,8 12,7 15,4 22 12 36 19 SSW 17 0,0
23.10.2020 14:00:00 17,0 12,5 17,2 22 12 29 16 SSW 28 0,0
23.10.2020 13:00:00 16,1 13,2 15,9 22 12 29 16 S 19 0,0
23.10.2020 12:00:00 15,3 12,3 15,7 18 10 29 16 SSW 26 0,0
23.10.2020 11:00:00 13,9 13,0 13,9 14 8 18 10 S 11 0,0
23.10.2020 10:00:00 11,0 11,0 11,5 7 4 14 8 S 0,3 0,0
23.10.2020 09:00:00 9,9 9,9 9,9 11 6 14 8 S 0,1 0,0
23.10.2020 08:00:00 9,0 9,0 8,8 11 6 18 10 S 0,1 0,0
23.10.2020 07:00:00 8,6 8,6 7,9 11 6 11 6 S 0,1 0,0
23.10.2020 06:00:00 8,7 8,7 8,0 7 4 11 6 SSW 0,1 0,0
23.10.2020 05:00:00 8,6 8,6 6,9 7 4 14 8 S 0,3 0,0
23.10.2020 04:00:00 8,8 8,8 7,7 7 4 14 8 S 0,3 0,0
23.10.2020 03:00:00 9,0 8,8 7,1 7 4 11 6 S 22 0,0
23.10.2020 02:00:00 11,2 10,5 9,8 7 4 11 6 SW 33 0,0
23.10.2020 01:00:00 11,4 10,4 10,4 7 4 14 8 W 40 0,0
23.10.2020 00:00:00 12,2 11,6 11,1 11 6 14 8 WSW 31 0,0
22.10.2020 23:00:00 13,1 12,3 12,3 14 8 25 14 W 11 0,3
22.10.2020 22:00:00 13,2 12,3 12,4 14 8 25 14 SW 15 0,0
22.10.2020 21:00:00 12,8 11,9 11,7 18 10 29 16 SW 18 0,0
22.10.2020 20:00:00 13,2 11,8 12,2 18 10 32 18 SW 20 0,0
22.10.2020 19:00:00 13,4 11,6 12,3 25 14 36 19 SW 27 0,0
22.10.2020 18:00:00 13,5 11,4 12,5 25 14 40 21 SW 27 0,0
22.10.2020 17:00:00 14,2 11,4 13,6 29 16 43 23 SW 29 0,0
22.10.2020 16:00:00 14,8 11,6 14,5 32 18 43 23 SW 31 0,0
22.10.2020 15:00:00 15,3 11,9 15,2 22 12 43 23 SW 25 0,0
22.10.2020 14:00:00 15,8 12,2 15,7 29 16 50 27 SW 25 0,0
22.10.2020 13:00:00 15,0 11,4 14,5 32 18 50 27 SW 26 0,0
22.10.2020 12:00:00 15,6 12,2 15,2 29 16 47 25 SW 25 0,0
22.10.2020 11:00:00 15,2 12,2 15,1 29 16 47 25 SW 22 0,0
22.10.2020 10:00:00 14,5 12,1 14,3 29 16 40 21 SW 21 0,0
22.10.2020 09:00:00 14,0 12,1 13,3 25 14 40 21 SW 20 0,0
22.10.2020 08:00:00 13,0 11,7 12,2 25 14 40 21 SW 21 0,0
22.10.2020 07:00:00 13,3 11,7 12,0 25 14 40 21 SW 27 0,0
22.10.2020 06:00:00 13,3 11,9 12,2 25 14 36 19 SSW 29 0,0
22.10.2020 05:00:00 13,0 11,8 11,9 18 10 32 18 SSW 27 0,0
22.10.2020 04:00:00 13,6 11,7 12,5 22 12 36 19 SSW 27 0,0
22.10.2020 03:00:00 14,8 13,2 14,0 25 14 40 21 SW 26 0,0
22.10.2020 02:00:00 14,0 13,3 13,3 18 10 32 18 SSW 23 0,0
22.10.2020 01:00:00 14,1 13,3 13,4 22 12 32 18 SW 15 0,0
22.10.2020 00:00:00 14,2 13,3 13,5 22 12 36 19 WSW 21 0,0
21.10.2020 23:00:00 14,2 13,4 13,5 25 14 43 23 WSW 25 0,0
21.10.2020 22:00:00 14,4 14,0 13,7 32 18 68 37 W 7 1,1
21.10.2020 21:00:00 14,8 13,7 13,7 47 25 76 41 WSW 3,5 0,8
21.10.2020 20:00:00 15,7 13,3 14,9 47 25 83 45 SW 12 0,0
21.10.2020 19:00:00 16,5 13,1 15,6 54 29 90 49 SW 45 0,0
21.10.2020 18:00:00 17,8 13,1 16,9 50 27 83 45 SW 49 0,0
21.10.2020 17:00:00 18,3 13,5 17,2 50 27 86 47 SW 47 0,0
21.10.2020 16:00:00 18,8 13,9 17,8 40 21 65 35 SSW 50 0,0
21.10.2020 15:00:00 17,6 13,7 16,0 29 16 43 23 S 32 0,0
21.10.2020 14:00:00 16,1 12,9 15,1 29 16 47 25 S 18 0,0
21.10.2020 13:00:00 14,6 12,7 13,8 29 16 40 21 SSE 10 0,2
21.10.2020 12:00:00 13,2 12,9 12,7 25 14 36 19 SSE 7 1,4
21.10.2020 11:00:00 12,8 12,6 12,3 25 14 43 23 SSE 4,9 1,3
21.10.2020 10:00:00 12,6 12,6 12,2 22 12 29 16 SSE 6 3,2
21.10.2020 09:00:00 12,7 12,6 12,3 18 10 32 18 SSE 6 1,1
21.10.2020 08:00:00 12,8 12,7 12,4 18 10 29 16 SSE 4,5 1,0
21.10.2020 07:00:00 12,9 12,8 12,5 14 8 29 16 SSE 8 0,5
21.10.2020 06:00:00 13,0 12,8 12,5 18 10 25 14 S 10 0,0
21.10.2020 05:00:00 13,1 12,8 12,6 18 10 25 14 SSE 8 0,0
21.10.2020 04:00:00 13,2 12,8 12,8 11 6 22 12 SE 12 0,0
21.10.2020 03:00:00 13,7 13,1 13,1 14 8 22 12 S 13 0,0
21.10.2020 02:00:00 13,9 13,2 13,3 14 8 25 14 SSE 12 0,0
21.10.2020 01:00:00 14,1 13,2 13,4 14 8 22 12 S 16 0,0
21.10.2020 00:00:00 14,0 13,1 13,4 14 8 22 12 S 14 0,0
20.10.2020 23:00:00 13,7 12,8 13,0 14 8 22 12 S 15 0,0
20.10.2020 22:00:00 13,7 12,6 12,8 18 10 25 14 S 19 0,0
20.10.2020 21:00:00 13,9 12,2 13,0 18 10 25 14 S 23 0,0
20.10.2020 20:00:00 13,5 11,8 12,6 14 8 22 12 S 27 0,0
20.10.2020 19:00:00 13,5 11,6 12,4 14 8 25 14 S 25 0,0
20.10.2020 18:00:00 13,7 11,7 12,7 14 8 25 14 SSW 30 0,0
20.10.2020 17:00:00 13,7 11,7 12,9 18 10 32 18 SSW 27 0,0
20.10.2020 16:00:00 13,5 11,4 13,0 18 10 25 14 S 25 0,0
20.10.2020 15:00:00 12,9 10,9 12,5 14 8 29 16 S 25 0,0
20.10.2020 14:00:00 12,6 10,4 12,2 18 10 36 19 SSW 26 0,0
20.10.2020 13:00:00 11,8 9,7 11,3 18 10 29 16 S 19 0,0
20.10.2020 12:00:00 11,3 8,9 10,7 18 10 29 16 S 17 0,1
20.10.2020 11:00:00 11,0 8,3 10,6 18 10 29 16 S 26 0,0
20.10.2020 10:00:00 10,6 7,6 9,9 22 12 32 18 S 29 0,0
20.10.2020 09:00:00 9,4 6,9 8,7 18 10 32 18 S 15 0,0
20.10.2020 08:00:00 8,9 6,4 7,8 14 8 29 16 SSE 14 0,0
20.10.2020 07:00:00 8,8 6,1 7,6 22 12 32 18 SSE 10 0,0
20.10.2020 06:00:00 8,7 5,8 7,6 18 10 32 18 SSE 9 0,0
20.10.2020 05:00:00 8,7 6,1 7,5 22 12 36 19 SE 10 0,0
20.10.2020 04:00:00 8,7 6,1 7,7 22 12 32 18 SE 10 0,0
20.10.2020 03:00:00 8,8 6,2 7,7 18 10 29 16 SSE 11 0,0
20.10.2020 02:00:00 9,3 6,8 8,2 18 10 25 14 SSE 9 0,0
20.10.2020 01:00:00 9,2 6,9 8,1 18 10 29 16 SSE 9 0,0
20.10.2020 00:00:00 9,2 7,1 7,6 18 10 25 14 SE 8 0,0
19.10.2020 23:00:00 9,0 6,4 7,4 14 8 22 12 SSE 12 0,0
19.10.2020 22:00:00 9,5 6,9 8,0 14 8 25 14 SSE 12 0,0
19.10.2020 21:00:00 9,6 7,1 8,1 14 8 25 14 SSE 10 0,0
19.10.2020 20:00:00 9,8 6,8 8,1 18 10 25 14 SSE 11 0,0
19.10.2020 19:00:00 10,2 6,4 8,4 14 8 22 12 SSE 21 0,0
19.10.2020 18:00:00 10,8 7,0 9,5 14 8 22 12 SSE 22 0,0
19.10.2020 17:00:00 10,7 8,6 10,1 7 4 18 10 SSE 16 0,0
19.10.2020 16:00:00 11,2 8,6 10,7 14 8 22 12 SSE 14 0,0
19.10.2020 15:00:00 11,0 9,1 10,9 11 6 18 10 S 16 0,0
19.10.2020 14:00:00 10,9 9,3 10,9 11 6 22 12 S 15 0,0
19.10.2020 13:00:00 10,4 9,4 10,2 14 8 18 10 SSE 13 0,0
19.10.2020 12:00:00 10,1 8,8 9,7 11 6 14 8 SE 16 0,0
19.10.2020 11:00:00 10,0 7,6 9,6 11 6 25 14 SSW 41 0,0
19.10.2020 10:00:00 10,1 8,5 9,8 14 8 18 10 SSW 27 0,0
19.10.2020 09:00:00 9,4 8,9 8,9 14 8 18 10 SSW 11 0,0
19.10.2020 08:00:00 8,7 8,4 8,0 11 6 18 10 S 10 0,0
19.10.2020 07:00:00 8,5 8,0 7,6 11 6 18 10 SW 28 0,0
19.10.2020 06:00:00 8,5 8,2 7,7 11 6 18 10 SSW 21 0,0
19.10.2020 05:00:00 8,6 8,5 8,0 11 6 14 8 SSW 19 0,0
19.10.2020 04:00:00 8,2 8,2 7,4 7 4 14 8 S 10 0,0
19.10.2020 03:00:00 7,6 7,6 6,1 11 6 11 6 SSW 7 0,0

tt = temperature
td = dewpoint
tt 5cm = temperature 5cm
ff = wind speed
fx = gusts
dd = wind direction
vv = visibility
rr = precipitation

Next stations